sensor_id;sensor_type;location;lat;lon;timestamp;temperature;humidity
21502;DHT22;27639;48.674;9.242;2023-05-19T00:01:47;16.90;46.60
21502;DHT22;27639;48.674;9.242;2023-05-19T00:04:13;16.90;46.80
21502;DHT22;27639;48.674;9.242;2023-05-19T00:06:39;16.80;46.90
21502;DHT22;27639;48.674;9.242;2023-05-19T00:09:07;16.80;47.10
21502;DHT22;27639;48.674;9.242;2023-05-19T00:11:35;16.70;47.00
21502;DHT22;27639;48.674;9.242;2023-05-19T00:14:02;16.70;47.10
21502;DHT22;27639;48.674;9.242;2023-05-19T00:16:29;16.60;47.20
21502;DHT22;27639;48.674;9.242;2023-05-19T00:18:56;16.50;47.40
21502;DHT22;27639;48.674;9.242;2023-05-19T00:21:22;16.60;47.40
21502;DHT22;27639;48.674;9.242;2023-05-19T00:23:47;16.60;47.30
21502;DHT22;27639;48.674;9.242;2023-05-19T00:26:14;16.50;47.20
21502;DHT22;27639;48.674;9.242;2023-05-19T00:28:40;16.50;47.20
21502;DHT22;27639;48.674;9.242;2023-05-19T00:31:05;16.50;47.10
21502;DHT22;27639;48.674;9.242;2023-05-19T00:33:31;16.50;47.10
21502;DHT22;27639;48.674;9.242;2023-05-19T00:36:01;16.50;47.20
21502;DHT22;27639;48.674;9.242;2023-05-19T00:38:31;16.50;47.40
21502;DHT22;27639;48.674;9.242;2023-05-19T00:40:58;16.50;47.70
21502;DHT22;27639;48.674;9.242;2023-05-19T00:43:24;16.50;48.00
21502;DHT22;27639;48.674;9.242;2023-05-19T00:45:50;16.60;48.10
21502;DHT22;27639;48.674;9.242;2023-05-19T00:48:16;16.60;48.00
21502;DHT22;27639;48.674;9.242;2023-05-19T00:50:41;16.60;47.80
21502;DHT22;27639;48.674;9.242;2023-05-19T00:53:08;16.60;47.80
21502;DHT22;27639;48.674;9.242;2023-05-19T00:55:36;16.70;48.00
21502;DHT22;27639;48.674;9.242;2023-05-19T00:58:03;16.70;47.90
21502;DHT22;27639;48.674;9.242;2023-05-19T01:00:29;16.70;47.70
21502;DHT22;27639;48.674;9.242;2023-05-19T01:02:55;16.70;47.60
21502;DHT22;27639;48.674;9.242;2023-05-19T01:05:21;16.70;47.70
21502;DHT22;27639;48.674;9.242;2023-05-19T01:07:47;16.70;47.70
21502;DHT22;27639;48.674;9.242;2023-05-19T01:10:18;16.70;47.80
21502;DHT22;27639;48.674;9.242;2023-05-19T01:12:44;16.70;47.70
21502;DHT22;27639;48.674;9.242;2023-05-19T01:15:10;16.70;47.70
21502;DHT22;27639;48.674;9.242;2023-05-19T01:20:33;16.70;47.70
21502;DHT22;27639;48.674;9.242;2023-05-19T01:31:28;16.60;48.20
21502;DHT22;27639;48.674;9.242;2023-05-19T01:33:54;16.60;48.10
21502;DHT22;27639;48.674;9.242;2023-05-19T01:36:21;16.60;48.10
21502;DHT22;27639;48.674;9.242;2023-05-19T01:38:51;16.70;48.40
21502;DHT22;27639;48.674;9.242;2023-05-19T01:41:19;16.60;48.10
21502;DHT22;27639;48.674;9.242;2023-05-19T01:43:47;16.60;48.10
21502;DHT22;27639;48.674;9.242;2023-05-19T01:46:13;16.60;48.10
21502;DHT22;27639;48.674;9.242;2023-05-19T01:48:40;16.50;48.10
21502;DHT22;27639;48.674;9.242;2023-05-19T01:51:06;16.50;48.20
21502;DHT22;27639;48.674;9.242;2023-05-19T01:53:31;16.40;48.30
21502;DHT22;27639;48.674;9.242;2023-05-19T01:55:58;16.40;48.40
21502;DHT22;27639;48.674;9.242;2023-05-19T02:01:04;16.20;48.60
21502;DHT22;27639;48.674;9.242;2023-05-19T02:04:00;16.20;48.90
21502;DHT22;27639;48.674;9.242;2023-05-19T02:06:54;16.10;48.90
21502;DHT22;27639;48.674;9.242;2023-05-19T02:09:38;16.00;48.90
21502;DHT22;27639;48.674;9.242;2023-05-19T02:12:28;15.90;49.20
21502;DHT22;27639;48.674;9.242;2023-05-19T02:17:26;15.80;49.40
21502;DHT22;27639;48.674;9.242;2023-05-19T02:19:53;15.80;49.40
21502;DHT22;27639;48.674;9.242;2023-05-19T02:22:18;15.80;49.50
21502;DHT22;27639;48.674;9.242;2023-05-19T02:24:44;15.70;49.60
21502;DHT22;27639;48.674;9.242;2023-05-19T02:27:12;15.70;49.80
21502;DHT22;27639;48.674;9.242;2023-05-19T02:29:37;15.70;49.90
21502;DHT22;27639;48.674;9.242;2023-05-19T02:32:04;15.70;49.90
21502;DHT22;27639;48.674;9.242;2023-05-19T02:34:30;15.70;49.90
21502;DHT22;27639;48.674;9.242;2023-05-19T02:36:55;15.60;49.90
21502;DHT22;27639;48.674;9.242;2023-05-19T02:39:21;15.70;50.00
21502;DHT22;27639;48.674;9.242;2023-05-19T02:41:47;15.70;50.00
21502;DHT22;27639;48.674;9.242;2023-05-19T02:44:13;15.80;50.00
21502;DHT22;27639;48.674;9.242;2023-05-19T02:46:38;15.80;49.70
21502;DHT22;27639;48.674;9.242;2023-05-19T02:49:04;15.70;49.60
21502;DHT22;27639;48.674;9.242;2023-05-19T02:51:30;15.70;49.60
21502;DHT22;27639;48.674;9.242;2023-05-19T02:53:55;15.70;49.60
21502;DHT22;27639;48.674;9.242;2023-05-19T02:56:21;15.70;49.60
21502;DHT22;27639;48.674;9.242;2023-05-19T02:58:47;15.80;49.60
21502;DHT22;27639;48.674;9.242;2023-05-19T03:01:12;15.70;49.50
21502;DHT22;27639;48.674;9.242;2023-05-19T03:03:38;15.80;49.50
21502;DHT22;27639;48.674;9.242;2023-05-19T03:06:04;15.70;49.60
21502;DHT22;27639;48.674;9.242;2023-05-19T03:08:33;15.60;49.70
21502;DHT22;27639;48.674;9.242;2023-05-19T03:10:59;15.70;49.60
21502;DHT22;27639;48.674;9.242;2023-05-19T03:13:25;15.70;49.60
21502;DHT22;27639;48.674;9.242;2023-05-19T03:15:50;15.70;49.60
21502;DHT22;27639;48.674;9.242;2023-05-19T03:18:16;15.70;49.60
21502;DHT22;27639;48.674;9.242;2023-05-19T03:20:42;15.60;49.50
21502;DHT22;27639;48.674;9.242;2023-05-19T03:23:09;15.60;49.40
21502;DHT22;27639;48.674;9.242;2023-05-19T03:25:34;15.60;49.30
21502;DHT22;27639;48.674;9.242;2023-05-19T03:28:00;15.70;49.40
21502;DHT22;27639;48.674;9.242;2023-05-19T03:30:26;15.70;49.50
21502;DHT22;27639;48.674;9.242;2023-05-19T03:32:51;15.60;49.50
21502;DHT22;27639;48.674;9.242;2023-05-19T03:35:17;15.70;49.50
21502;DHT22;27639;48.674;9.242;2023-05-19T03:37:43;15.70;49.30
21502;DHT22;27639;48.674;9.242;2023-05-19T03:40:09;15.70;49.30
21502;DHT22;27639;48.674;9.242;2023-05-19T03:42:35;15.70;49.30
21502;DHT22;27639;48.674;9.242;2023-05-19T03:45:01;15.70;49.30
21502;DHT22;27639;48.674;9.242;2023-05-19T03:47:26;15.60;49.20
21502;DHT22;27639;48.674;9.242;2023-05-19T03:49:52;15.60;49.20
21502;DHT22;27639;48.674;9.242;2023-05-19T03:52:17;15.60;49.20
21502;DHT22;27639;48.674;9.242;2023-05-19T03:54:43;15.50;49.20
21502;DHT22;27639;48.674;9.242;2023-05-19T03:57:09;15.60;49.50
21502;DHT22;27639;48.674;9.242;2023-05-19T03:59:37;15.60;49.30
21502;DHT22;27639;48.674;9.242;2023-05-19T04:02:05;15.60;49.30
21502;DHT22;27639;48.674;9.242;2023-05-19T04:04:31;15.60;49.40
21502;DHT22;27639;48.674;9.242;2023-05-19T04:06:57;15.60;49.20
21502;DHT22;27639;48.674;9.242;2023-05-19T04:09:22;15.60;49.20
21502;DHT22;27639;48.674;9.242;2023-05-19T04:11:48;15.50;49.10
21502;DHT22;27639;48.674;9.242;2023-05-19T04:14:14;15.50;49.20
21502;DHT22;27639;48.674;9.242;2023-05-19T04:16:40;15.50;49.20
21502;DHT22;27639;48.674;9.242;2023-05-19T04:19:06;15.50;49.10
21502;DHT22;27639;48.674;9.242;2023-05-19T04:21:31;15.40;49.10
21502;DHT22;27639;48.674;9.242;2023-05-19T04:23:57;15.40;49.30
21502;DHT22;27639;48.674;9.242;2023-05-19T04:26:26;15.40;49.20
21502;DHT22;27639;48.674;9.242;2023-05-19T04:28:55;15.40;49.30
21502;DHT22;27639;48.674;9.242;2023-05-19T04:31:20;15.40;49.30
21502;DHT22;27639;48.674;9.242;2023-05-19T04:33:46;15.40;49.50
21502;DHT22;27639;48.674;9.242;2023-05-19T04:36:15;15.40;49.50
21502;DHT22;27639;48.674;9.242;2023-05-19T04:38:42;15.40;49.50
21502;DHT22;27639;48.674;9.242;2023-05-19T04:41:10;15.40;49.50
21502;DHT22;27639;48.674;9.242;2023-05-19T04:43:37;15.40;49.60
21502;DHT22;27639;48.674;9.242;2023-05-19T04:46:09;15.40;49.70
21502;DHT22;27639;48.674;9.242;2023-05-19T04:48:35;15.50;49.90
21502;DHT22;27639;48.674;9.242;2023-05-19T04:51:01;15.50;49.80
21502;DHT22;27639;48.674;9.242;2023-05-19T04:53:28;15.50;49.70
21502;DHT22;27639;48.674;9.242;2023-05-19T04:55:54;15.50;49.60
21502;DHT22;27639;48.674;9.242;2023-05-19T04:58:21;15.60;49.80
21502;DHT22;27639;48.674;9.242;2023-05-19T05:00:50;15.60;49.50
21502;DHT22;27639;48.674;9.242;2023-05-19T05:03:15;15.70;49.80
21502;DHT22;27639;48.674;9.242;2023-05-19T05:05:42;15.70;49.70
21502;DHT22;27639;48.674;9.242;2023-05-19T05:08:09;15.80;49.60
21502;DHT22;27639;48.674;9.242;2023-05-19T05:10:34;15.90;49.70
21502;DHT22;27639;48.674;9.242;2023-05-19T05:13:00;15.90;49.60
21502;DHT22;27639;48.674;9.242;2023-05-19T05:15:26;16.10;49.90
21502;DHT22;27639;48.674;9.242;2023-05-19T05:17:54;16.10;49.70
21502;DHT22;27639;48.674;9.242;2023-05-19T05:20:20;16.10;49.60
21502;DHT22;27639;48.674;9.242;2023-05-19T05:22:47;16.20;49.60
21502;DHT22;27639;48.674;9.242;2023-05-19T05:25:13;16.30;50.10
21502;DHT22;27639;48.674;9.242;2023-05-19T05:27:38;16.50;50.40
21502;DHT22;27639;48.674;9.242;2023-05-19T05:30:04;17.00;51.00
21502;DHT22;27639;48.674;9.242;2023-05-19T05:32:30;17.70;51.00
21502;DHT22;27639;48.674;9.242;2023-05-19T05:34:56;18.50;50.10
21502;DHT22;27639;48.674;9.242;2023-05-19T05:37:21;19.20;48.90
21502;DHT22;27639;48.674;9.242;2023-05-19T05:39:47;19.90;48.10
21502;DHT22;27639;48.674;9.242;2023-05-19T05:42:13;20.50;47.00
21502;DHT22;27639;48.674;9.242;2023-05-19T05:44:38;21.00;45.70
21502;DHT22;27639;48.674;9.242;2023-05-19T05:47:04;21.30;44.40
21502;DHT22;27639;48.674;9.242;2023-05-19T05:49:30;21.60;43.50
21502;DHT22;27639;48.674;9.242;2023-05-19T05:51:56;21.80;42.40
21502;DHT22;27639;48.674;9.242;2023-05-19T05:54:22;22.10;42.40
21502;DHT22;27639;48.674;9.242;2023-05-19T05:56:49;22.30;42.10
21502;DHT22;27639;48.674;9.242;2023-05-19T05:59:15;22.40;41.90
21502;DHT22;27639;48.674;9.242;2023-05-19T06:01:40;22.50;41.70
21502;DHT22;27639;48.674;9.242;2023-05-19T06:04:08;22.60;40.90
21502;DHT22;27639;48.674;9.242;2023-05-19T06:06:34;22.80;41.00
21502;DHT22;27639;48.674;9.242;2023-05-19T06:09:00;22.90;40.70
21502;DHT22;27639;48.674;9.242;2023-05-19T06:11:26;23.00;40.60
21502;DHT22;27639;48.674;9.242;2023-05-19T06:13:53;23.20;39.70
21502;DHT22;27639;48.674;9.242;2023-05-19T06:16:18;23.20;39.60
21502;DHT22;27639;48.674;9.242;2023-05-19T06:18:44;23.20;40.10
21502;DHT22;27639;48.674;9.242;2023-05-19T06:21:09;23.30;40.20
21502;DHT22;27639;48.674;9.242;2023-05-19T06:23:39;23.30;39.90
21502;DHT22;27639;48.674;9.242;2023-05-19T06:26:05;23.30;39.50
21502;DHT22;27639;48.674;9.242;2023-05-19T06:28:31;23.20;38.90
21502;DHT22;27639;48.674;9.242;2023-05-19T06:30:56;22.90;39.20
21502;DHT22;27639;48.674;9.242;2023-05-19T06:33:22;22.60;38.60
21502;DHT22;27639;48.674;9.242;2023-05-19T06:35:47;22.40;39.10
21502;DHT22;27639;48.674;9.242;2023-05-19T06:38:13;22.20;39.30
21502;DHT22;27639;48.674;9.242;2023-05-19T06:40:39;21.80;39.60
21502;DHT22;27639;48.674;9.242;2023-05-19T06:43:05;21.60;40.80
21502;DHT22;27639;48.674;9.242;2023-05-19T06:45:31;21.50;40.20
21502;DHT22;27639;48.674;9.242;2023-05-19T06:47:56;21.20;40.30
21502;DHT22;27639;48.674;9.242;2023-05-19T06:50:23;21.10;40.70
21502;DHT22;27639;48.674;9.242;2023-05-19T06:52:49;20.90;41.10
21502;DHT22;27639;48.674;9.242;2023-05-19T06:55:15;20.70;41.10
21502;DHT22;27639;48.674;9.242;2023-05-19T06:57:41;20.40;40.90
21502;DHT22;27639;48.674;9.242;2023-05-19T07:00:07;20.00;40.80
21502;DHT22;27639;48.674;9.242;2023-05-19T07:02:38;19.70;41.80
21502;DHT22;27639;48.674;9.242;2023-05-19T07:05:04;19.40;42.60
21502;DHT22;27639;48.674;9.242;2023-05-19T07:07:30;19.30;42.70
21502;DHT22;27639;48.674;9.242;2023-05-19T07:09:55;19.00;43.20
21502;DHT22;27639;48.674;9.242;2023-05-19T07:12:21;18.80;43.40
21502;DHT22;27639;48.674;9.242;2023-05-19T07:14:47;18.60;43.70
21502;DHT22;27639;48.674;9.242;2023-05-19T07:17:12;18.50;44.20
21502;DHT22;27639;48.674;9.242;2023-05-19T07:19:38;18.40;44.10
21502;DHT22;27639;48.674;9.242;2023-05-19T07:22:03;18.40;44.00
21502;DHT22;27639;48.674;9.242;2023-05-19T07:24:29;18.30;43.90
21502;DHT22;27639;48.674;9.242;2023-05-19T07:26:55;18.30;44.20
21502;DHT22;27639;48.674;9.242;2023-05-19T07:29:21;18.20;44.40
21502;DHT22;27639;48.674;9.242;2023-05-19T07:31:47;18.10;44.30
21502;DHT22;27639;48.674;9.242;2023-05-19T07:34:12;18.10;45.00
21502;DHT22;27639;48.674;9.242;2023-05-19T07:36:38;18.10;44.80
21502;DHT22;27639;48.674;9.242;2023-05-19T07:39:03;18.10;45.40
21502;DHT22;27639;48.674;9.242;2023-05-19T07:41:29;18.00;45.40
21502;DHT22;27639;48.674;9.242;2023-05-19T07:43:55;18.00;45.40
21502;DHT22;27639;48.674;9.242;2023-05-19T07:46:20;18.00;45.50
21502;DHT22;27639;48.674;9.242;2023-05-19T07:48:46;17.90;45.40
21502;DHT22;27639;48.674;9.242;2023-05-19T07:51:12;17.90;45.60
21502;DHT22;27639;48.674;9.242;2023-05-19T07:53:38;17.90;45.70
21502;DHT22;27639;48.674;9.242;2023-05-19T07:56:03;18.00;45.80
21502;DHT22;27639;48.674;9.242;2023-05-19T07:58:29;18.00;45.50
21502;DHT22;27639;48.674;9.242;2023-05-19T08:00:58;18.00;45.50
21502;DHT22;27639;48.674;9.242;2023-05-19T08:03:24;18.00;45.60
21502;DHT22;27639;48.674;9.242;2023-05-19T08:05:50;17.90;46.00
21502;DHT22;27639;48.674;9.242;2023-05-19T08:08:17;18.00;46.10
21502;DHT22;27639;48.674;9.242;2023-05-19T08:10:44;18.00;46.10
21502;DHT22;27639;48.674;9.242;2023-05-19T08:13:09;18.00;46.10
21502;DHT22;27639;48.674;9.242;2023-05-19T08:15:35;18.00;46.00
21502;DHT22;27639;48.674;9.242;2023-05-19T08:18:01;18.10;46.10
21502;DHT22;27639;48.674;9.242;2023-05-19T08:20:27;18.00;45.50
21502;DHT22;27639;48.674;9.242;2023-05-19T08:22:52;18.00;46.30
21502;DHT22;27639;48.674;9.242;2023-05-19T08:25:18;17.90;46.00
21502;DHT22;27639;48.674;9.242;2023-05-19T08:27:44;17.90;46.10
21502;DHT22;27639;48.674;9.242;2023-05-19T08:30:10;17.90;45.80
21502;DHT22;27639;48.674;9.242;2023-05-19T08:32:36;17.90;45.90
21502;DHT22;27639;48.674;9.242;2023-05-19T08:35:02;17.90;46.00
21502;DHT22;27639;48.674;9.242;2023-05-19T08:37:28;17.90;46.20
21502;DHT22;27639;48.674;9.242;2023-05-19T08:39:54;17.90;45.90
21502;DHT22;27639;48.674;9.242;2023-05-19T08:42:19;17.80;46.10
21502;DHT22;27639;48.674;9.242;2023-05-19T08:44:45;17.90;46.10
21502;DHT22;27639;48.674;9.242;2023-05-19T08:47:11;17.90;46.40
21502;DHT22;27639;48.674;9.242;2023-05-19T08:49:45;17.90;46.00
21502;DHT22;27639;48.674;9.242;2023-05-19T08:54:45;17.90;46.20
21502;DHT22;27639;48.674;9.242;2023-05-19T08:57:15;17.90;46.20
21502;DHT22;27639;48.674;9.242;2023-05-19T08:59:42;17.90;46.20
21502;DHT22;27639;48.674;9.242;2023-05-19T09:02:10;18.00;46.20
21502;DHT22;27639;48.674;9.242;2023-05-19T09:04:38;18.00;46.00
21502;DHT22;27639;48.674;9.242;2023-05-19T09:07:04;18.00;46.30
21502;DHT22;27639;48.674;9.242;2023-05-19T09:09:30;18.00;46.20
21502;DHT22;27639;48.674;9.242;2023-05-19T09:11:56;18.00;46.00
21502;DHT22;27639;48.674;9.242;2023-05-19T09:14:22;18.00;45.50
21502;DHT22;27639;48.674;9.242;2023-05-19T09:16:48;18.00;45.50
21502;DHT22;27639;48.674;9.242;2023-05-19T09:19:16;17.90;45.70
21502;DHT22;27639;48.674;9.242;2023-05-19T09:21:42;17.90;46.60
21502;DHT22;27639;48.674;9.242;2023-05-19T09:24:10;18.00;46.00
21502;DHT22;27639;48.674;9.242;2023-05-19T09:26:40;18.00;46.20
21502;DHT22;27639;48.674;9.242;2023-05-19T09:29:13;18.10;46.00
21502;DHT22;27639;48.674;9.242;2023-05-19T09:31:50;17.90;45.70
21502;DHT22;27639;48.674;9.242;2023-05-19T09:34:17;17.90;45.60
21502;DHT22;27639;48.674;9.242;2023-05-19T09:36:42;17.90;45.40
21502;DHT22;27639;48.674;9.242;2023-05-19T09:39:15;17.90;45.70
21502;DHT22;27639;48.674;9.242;2023-05-19T09:41:41;17.90;45.90
21502;DHT22;27639;48.674;9.242;2023-05-19T09:44:12;17.80;45.80
21502;DHT22;27639;48.674;9.242;2023-05-19T09:46:37;17.90;46.80
21502;DHT22;27639;48.674;9.242;2023-05-19T09:49:11;17.90;46.50
21502;DHT22;27639;48.674;9.242;2023-05-19T09:51:40;17.80;46.50
21502;DHT22;27639;48.674;9.242;2023-05-19T09:54:06;17.80;46.30
21502;DHT22;27639;48.674;9.242;2023-05-19T09:56:34;17.90;46.10
21502;DHT22;27639;48.674;9.242;2023-05-19T09:59:02;17.90;46.00
21502;DHT22;27639;48.674;9.242;2023-05-19T10:01:29;17.90;46.00
21502;DHT22;27639;48.674;9.242;2023-05-19T10:03:59;17.90;45.90
21502;DHT22;27639;48.674;9.242;2023-05-19T10:06:25;18.00;46.10
21502;DHT22;27639;48.674;9.242;2023-05-19T10:08:51;18.00;45.90
21502;DHT22;27639;48.674;9.242;2023-05-19T10:11:17;17.90;46.10
21502;DHT22;27639;48.674;9.242;2023-05-19T10:13:44;17.90;46.10
21502;DHT22;27639;48.674;9.242;2023-05-19T10:16:11;17.90;45.80
21502;DHT22;27639;48.674;9.242;2023-05-19T10:18:38;17.90;45.90
21502;DHT22;27639;48.674;9.242;2023-05-19T10:21:06;17.90;45.90
21502;DHT22;27639;48.674;9.242;2023-05-19T10:23:33;17.90;46.00
21502;DHT22;27639;48.674;9.242;2023-05-19T10:26:00;17.90;45.90
21502;DHT22;27639;48.674;9.242;2023-05-19T10:28:34;18.00;46.00
21502;DHT22;27639;48.674;9.242;2023-05-19T10:31:01;18.00;45.80
21502;DHT22;27639;48.674;9.242;2023-05-19T10:33:59;18.00;45.90
21502;DHT22;27639;48.674;9.242;2023-05-19T10:39:20;18.00;45.90
21502;DHT22;27639;48.674;9.242;2023-05-19T10:42:00;18.00;46.10
21502;DHT22;27639;48.674;9.242;2023-05-19T10:47:29;18.10;45.60
21502;DHT22;27639;48.674;9.242;2023-05-19T10:49:59;18.00;45.30
21502;DHT22;27639;48.674;9.242;2023-05-19T10:52:25;18.00;45.40
21502;DHT22;27639;48.674;9.242;2023-05-19T10:54:51;17.90;45.80
21502;DHT22;27639;48.674;9.242;2023-05-19T10:57:25;17.90;46.00
21502;DHT22;27639;48.674;9.242;2023-05-19T10:59:56;18.00;46.10
21502;DHT22;27639;48.674;9.242;2023-05-19T11:02:41;18.00;46.20
21502;DHT22;27639;48.674;9.242;2023-05-19T11:05:08;18.00;45.90
21502;DHT22;27639;48.674;9.242;2023-05-19T11:07:34;18.10;46.40
21502;DHT22;27639;48.674;9.242;2023-05-19T11:10:04;18.10;46.10
21502;DHT22;27639;48.674;9.242;2023-05-19T11:12:42;18.10;45.60
21502;DHT22;27639;48.674;9.242;2023-05-19T11:15:11;18.10;45.60
21502;DHT22;27639;48.674;9.242;2023-05-19T11:17:39;18.00;45.50
21502;DHT22;27639;48.674;9.242;2023-05-19T11:20:08;18.10;45.80
21502;DHT22;27639;48.674;9.242;2023-05-19T11:28:06;18.00;45.90
21502;DHT22;27639;48.674;9.242;2023-05-19T11:30:31;18.00;46.10
21502;DHT22;27639;48.674;9.242;2023-05-19T11:32:57;18.00;46.00
21502;DHT22;27639;48.674;9.242;2023-05-19T11:35:23;18.00;45.60
21502;DHT22;27639;48.674;9.242;2023-05-19T11:37:49;18.00;46.00
21502;DHT22;27639;48.674;9.242;2023-05-19T11:40:20;18.00;46.30
21502;DHT22;27639;48.674;9.242;2023-05-19T11:42:46;18.10;46.20
21502;DHT22;27639;48.674;9.242;2023-05-19T11:45:12;18.10;45.90
21502;DHT22;27639;48.674;9.242;2023-05-19T11:47:37;18.20;46.00
21502;DHT22;27639;48.674;9.242;2023-05-19T11:50:04;18.20;45.80
21502;DHT22;27639;48.674;9.242;2023-05-19T11:52:29;18.30;46.10
21502;DHT22;27639;48.674;9.242;2023-05-19T11:54:59;18.30;45.20
21502;DHT22;27639;48.674;9.242;2023-05-19T11:57:26;18.20;45.50
21502;DHT22;27639;48.674;9.242;2023-05-19T11:59:51;18.20;45.30
21502;DHT22;27639;48.674;9.242;2023-05-19T12:02:22;18.20;45.30
21502;DHT22;27639;48.674;9.242;2023-05-19T12:04:53;18.10;45.20
21502;DHT22;27639;48.674;9.242;2023-05-19T12:07:22;18.10;45.10
21502;DHT22;27639;48.674;9.242;2023-05-19T12:09:52;17.90;45.60
21502;DHT22;27639;48.674;9.242;2023-05-19T12:12:20;17.90;45.70
21502;DHT22;27639;48.674;9.242;2023-05-19T12:14:48;17.90;45.40
21502;DHT22;27639;48.674;9.242;2023-05-19T12:17:16;17.70;45.90
21502;DHT22;27639;48.674;9.242;2023-05-19T12:19:45;17.80;45.60
21502;DHT22;27639;48.674;9.242;2023-05-19T12:22:11;17.70;45.90
21502;DHT22;27639;48.674;9.242;2023-05-19T12:24:38;17.80;46.30
21502;DHT22;27639;48.674;9.242;2023-05-19T12:27:24;17.80;46.10
21502;DHT22;27639;48.674;9.242;2023-05-19T12:29:54;17.80;46.30
21502;DHT22;27639;48.674;9.242;2023-05-19T12:32:26;17.80;46.60
21502;DHT22;27639;48.674;9.242;2023-05-19T12:34:52;17.90;46.70
21502;DHT22;27639;48.674;9.242;2023-05-19T12:37:19;18.00;46.80
21502;DHT22;27639;48.674;9.242;2023-05-19T12:39:47;18.00;46.80
21502;DHT22;27639;48.674;9.242;2023-05-19T12:42:15;18.10;46.60
21502;DHT22;27639;48.674;9.242;2023-05-19T12:44:48;18.10;46.60
21502;DHT22;27639;48.674;9.242;2023-05-19T12:47:15;18.10;46.20
21502;DHT22;27639;48.674;9.242;2023-05-19T12:52:27;18.10;45.60
21502;DHT22;27639;48.674;9.242;2023-05-19T12:55:03;18.00;46.00
21502;DHT22;27639;48.674;9.242;2023-05-19T12:57:33;17.90;46.20
21502;DHT22;27639;48.674;9.242;2023-05-19T13:00:20;17.90;46.30
21502;DHT22;27639;48.674;9.242;2023-05-19T13:03:00;17.90;46.40
21502;DHT22;27639;48.674;9.242;2023-05-19T13:05:37;17.90;46.40
21502;DHT22;27639;48.674;9.242;2023-05-19T13:08:07;17.90;46.20
21502;DHT22;27639;48.674;9.242;2023-05-19T13:10:35;18.00;46.10
21502;DHT22;27639;48.674;9.242;2023-05-19T13:13:01;17.90;46.20
21502;DHT22;27639;48.674;9.242;2023-05-19T13:15:29;18.00;46.30
21502;DHT22;27639;48.674;9.242;2023-05-19T13:18:03;17.90;46.10
21502;DHT22;27639;48.674;9.242;2023-05-19T13:20:30;17.90;46.20
21502;DHT22;27639;48.674;9.242;2023-05-19T13:22:57;17.90;46.30
21502;DHT22;27639;48.674;9.242;2023-05-19T13:25:24;17.90;46.50
21502;DHT22;27639;48.674;9.242;2023-05-19T13:27:50;17.90;46.70
21502;DHT22;27639;48.674;9.242;2023-05-19T13:30:17;17.80;46.60
21502;DHT22;27639;48.674;9.242;2023-05-19T13:32:44;17.90;46.30
21502;DHT22;27639;48.674;9.242;2023-05-19T13:35:10;17.80;46.50
21502;DHT22;27639;48.674;9.242;2023-05-19T13:37:36;17.90;46.70
21502;DHT22;27639;48.674;9.242;2023-05-19T13:40:04;17.90;46.70
21502;DHT22;27639;48.674;9.242;2023-05-19T13:42:31;17.90;46.40
21502;DHT22;27639;48.674;9.242;2023-05-19T13:44:57;17.90;46.60
21502;DHT22;27639;48.674;9.242;2023-05-19T13:47:23;18.00;46.60
21502;DHT22;27639;48.674;9.242;2023-05-19T13:49:49;17.90;47.20
21502;DHT22;27639;48.674;9.242;2023-05-19T13:52:15;17.90;47.00
21502;DHT22;27639;48.674;9.242;2023-05-19T13:54:41;18.00;46.90
21502;DHT22;27639;48.674;9.242;2023-05-19T13:57:06;18.00;46.70
21502;DHT22;27639;48.674;9.242;2023-05-19T13:59:33;18.20;46.10
21502;DHT22;27639;48.674;9.242;2023-05-19T14:01:59;18.10;46.00
21502;DHT22;27639;48.674;9.242;2023-05-19T14:04:25;18.10;46.40
21502;DHT22;27639;48.674;9.242;2023-05-19T14:06:50;18.20;46.30
21502;DHT22;27639;48.674;9.242;2023-05-19T14:09:16;18.20;46.50
21502;DHT22;27639;48.674;9.242;2023-05-19T14:11:42;18.20;46.90
21502;DHT22;27639;48.674;9.242;2023-05-19T14:14:07;18.30;46.80
21502;DHT22;27639;48.674;9.242;2023-05-19T14:16:33;18.40;46.20
21502;DHT22;27639;48.674;9.242;2023-05-19T14:18:58;18.40;46.20
21502;DHT22;27639;48.674;9.242;2023-05-19T14:21:24;18.50;46.20
21502;DHT22;27639;48.674;9.242;2023-05-19T14:23:50;18.50;45.90
21502;DHT22;27639;48.674;9.242;2023-05-19T14:26:15;18.50;45.90
21502;DHT22;27639;48.674;9.242;2023-05-19T14:28:41;18.50;46.00
21502;DHT22;27639;48.674;9.242;2023-05-19T14:31:13;18.60;46.20
21502;DHT22;27639;48.674;9.242;2023-05-19T14:33:39;18.60;46.50
21502;DHT22;27639;48.674;9.242;2023-05-19T14:36:06;18.70;46.40
21502;DHT22;27639;48.674;9.242;2023-05-19T14:38:31;18.70;46.00
21502;DHT22;27639;48.674;9.242;2023-05-19T14:40:57;18.80;45.90
21502;DHT22;27639;48.674;9.242;2023-05-19T14:43:22;18.80;45.90
21502;DHT22;27639;48.674;9.242;2023-05-19T14:45:48;18.80;46.30
21502;DHT22;27639;48.674;9.242;2023-05-19T14:48:14;18.90;45.70
21502;DHT22;27639;48.674;9.242;2023-05-19T14:50:40;18.90;45.20
21502;DHT22;27639;48.674;9.242;2023-05-19T14:53:05;18.90;45.30
21502;DHT22;27639;48.674;9.242;2023-05-19T14:55:31;18.90;45.60
21502;DHT22;27639;48.674;9.242;2023-05-19T14:57:56;18.80;45.50
21502;DHT22;27639;48.674;9.242;2023-05-19T15:00:22;18.80;45.40
21502;DHT22;27639;48.674;9.242;2023-05-19T15:02:50;18.80;46.00
21502;DHT22;27639;48.674;9.242;2023-05-19T15:05:16;18.80;45.40
21502;DHT22;27639;48.674;9.242;2023-05-19T15:07:42;18.80;45.50
21502;DHT22;27639;48.674;9.242;2023-05-19T15:10:07;18.80;45.60
21502;DHT22;27639;48.674;9.242;2023-05-19T15:12:33;18.90;45.50
21502;DHT22;27639;48.674;9.242;2023-05-19T15:14:59;18.90;45.30
21502;DHT22;27639;48.674;9.242;2023-05-19T15:17:25;18.90;45.20
21502;DHT22;27639;48.674;9.242;2023-05-19T15:19:50;18.90;45.30
21502;DHT22;27639;48.674;9.242;2023-05-19T15:22:16;18.90;45.40
21502;DHT22;27639;48.674;9.242;2023-05-19T15:24:41;18.90;45.30
21502;DHT22;27639;48.674;9.242;2023-05-19T15:27:07;18.90;45.20
21502;DHT22;27639;48.674;9.242;2023-05-19T15:29:33;18.80;45.40
21502;DHT22;27639;48.674;9.242;2023-05-19T15:32:00;18.80;45.60
21502;DHT22;27639;48.674;9.242;2023-05-19T15:34:26;18.80;45.70
21502;DHT22;27639;48.674;9.242;2023-05-19T15:36:51;18.80;45.50
21502;DHT22;27639;48.674;9.242;2023-05-19T15:39:17;18.80;45.60
21502;DHT22;27639;48.674;9.242;2023-05-19T15:41:43;18.90;45.70
21502;DHT22;27639;48.674;9.242;2023-05-19T15:44:09;18.90;45.70
21502;DHT22;27639;48.674;9.242;2023-05-19T15:46:34;18.90;45.60
21502;DHT22;27639;48.674;9.242;2023-05-19T15:49:00;18.90;45.40
21502;DHT22;27639;48.674;9.242;2023-05-19T15:51:26;18.80;45.40
21502;DHT22;27639;48.674;9.242;2023-05-19T15:53:52;18.80;45.60
21502;DHT22;27639;48.674;9.242;2023-05-19T15:56:17;18.80;45.50
21502;DHT22;27639;48.674;9.242;2023-05-19T15:58:44;18.90;46.40
21502;DHT22;27639;48.674;9.242;2023-05-19T16:01:10;18.90;45.80
21502;DHT22;27639;48.674;9.242;2023-05-19T16:03:36;19.00;45.80